To NAV CANADA Home Page Login to a new session Search on AWWS site Feedback and Comments Disclaimer Vers la page française équivalente Tips FAQ What's new on the site To the Forecasts and Observations / NOTAM section To "File a Flight Plan" website Publications and other links Update of the User's profile FIC Telephone Numbers My Weather Data Folder Route Weather Data Regional Weather Data Local Weather Data To the Forecasts and Observations / NOTAM section
Request Generated 05/04/2016 at 01:55:31 UTC . Weather information available at that time is displayed.

METAR/TAF

HALIFAX/STANFIELD INTL/NS    

SPECI CYHZ 040153Z 35007G15KT 15SM OVC004 06/05 A2982 RMK ST8 SLP102=
METAR CYHZ 040100Z 33008KT 15SM BKN007 OVC012 07/05 A2982 RMK SF6SC2
SLP103=
SPECI CYHZ 040026Z 33007KT 15SM BKN007 OVC012 07/05 A2982 RMK SC5SC3
SLP102=
METAR CYHZ 040000Z 33008KT 15SM OVC012 07/05 A2982 RMK SC8 SLP102=
METAR CYHZ 032300Z 32008KT 15SM OVC014 08/06 A2982 RMK SC8 SLP103=

TAF AMD CYHZ 040047Z 0400/0424 33008KT 4SM BR OVC007 TEMPO 0400/0412
P6SM NSW OVC012
FM041200 03008KT P6SM BKN012
FM041700 03010KT P6SM BKN025
BECMG 0422/0424 10005KT
RMK NXT FCST BY 040300Z=
Your time UTC time
Weather data provided by Environment Canada and NAV CANADA